Time;durP1;ratioP1;P1;durP2;ratioP2;P2;SDS_P1;SDS_P2;PMS_P1;PMS_P2;Temp;Humidity;BMP_temperature;BMP_pressure;BME280_temperature;BME280_humidity;BME280_pressure;Samples;Min_cycle;Max_cycle;Signal;HPM_P1;HPM_P2
2023/03/22 00:02:20;;;;;;;;;5.00;5.00;;;;;13.04;66.19;100622.34;4768985;29;45635;-63
2023/03/22 00:04:46;;;;;;;;;4.25;4.25;;;;;13.09;66.25;100640.94;4754858;29;45439;-64
2023/03/22 00:07:11;;;;;;;;;5.75;4.75;;;;;12.98;66.12;100621.34;4752423;29;45479;-63
2023/03/22 00:09:36;;;;;;;;;9.00;5.25;;;;;12.96;66.44;100619.94;4751091;29;45437;-63
2023/03/22 00:12:02;;;;;;;;;5.50;5.50;;;;;12.99;66.34;100622.22;4743810;29;46389;-64
2023/03/22 00:14:28;;;;;;;;;7.25;4.75;;;;;12.97;66.30;100624.34;4735181;29;45409;-64
2023/03/22 00:16:53;;;;;;;;;9.75;6.00;;;;;12.94;66.23;100611.88;4767034;29;45505;-63
2023/03/22 00:19:19;;;;;;;;;6.00;6.00;;;;;12.91;66.21;100617.84;4769258;29;45463;-63
2023/03/22 00:21:45;;;;;;;;;5.75;5.00;;;;;12.92;66.05;100622.28;4753123;29;45961;-63
2023/03/22 00:24:11;;;;;;;;;5.20;5.20;;;;;12.70;66.27;100584.19;4718673;29;45881;-63
2023/03/22 00:26:36;;;;;;;;;8.50;4.75;;;;;12.91;66.08;100604.06;4747923;29;45520;-63
2023/03/22 00:29:02;;;;;;;;;7.50;6.25;;;;;12.80;65.74;100585.59;4750181;29;45344;-63
2023/03/22 00:31:27;;;;;;;;;6.50;4.75;;;;;12.83;65.56;100585.97;4737863;29;45600;-62
2023/03/22 00:33:53;;;;;;;;;5.00;5.00;;;;;12.87;65.23;100602.88;4753078;29;45394;-63
2023/03/22 00:36:18;;;;;;;;;7.50;5.25;;;;;12.82;65.58;100589.75;4752693;29;45468;-63
2023/03/22 00:38:44;;;;;;;;;3.00;3.00;;;;;12.75;65.30;100575.22;4751842;29;45631;-62
2023/03/22 00:41:11;;;;;;;;;5.75;4.50;;;;;12.79;65.12;100586.63;4752781;29;46108;-63
2023/03/22 00:43:37;;;;;;;;;4.00;4.00;;;;;12.78;64.82;100588.56;4752506;29;45470;-63
2023/03/22 00:46:03;;;;;;;;;3.50;3.00;;;;;12.80;64.68;100577.31;4752889;29;45370;-64
2023/03/22 00:48:29;;;;;;;;;8.20;5.00;;;;;12.76;64.85;100574.19;4751586;29;45314;-62
2023/03/22 00:50:54;;;;;;;;;4.25;3.25;;;;;12.76;64.67;100584.34;4752093;29;45547;-62
2023/03/22 00:53:19;;;;;;;;;6.00;3.00;;;;;12.73;64.50;100567.22;4752374;29;45404;-62
2023/03/22 00:55:45;;;;;;;;;4.50;3.00;;;;;12.69;64.77;100574.25;4752578;29;45331;-62
2023/03/22 00:58:10;;;;;;;;;5.75;5.75;;;;;12.70;64.77;100570.44;4752637;29;45571;-61
2023/03/22 01:00:36;;;;;;;;;3.00;3.00;;;;;12.63;64.52;100557.84;4751945;29;45931;-61
2023/03/22 01:03:03;;;;;;;;;2.50;2.50;;;;;12.69;64.66;100571.50;4751818;29;45231;-60
2023/03/22 01:05:33;;;;;;;;;5.40;3.00;;;;;12.61;64.28;100563.56;4752216;29;45428;-61
2023/03/22 01:08:05;;;;;;;;;3.40;3.20;;;;;12.49;64.66;100541.44;4751697;29;45416;-61
2023/03/22 01:10:30;;;;;;;;;1.40;1.40;;;;;12.59;64.42;100562.94;4751917;29;46735;-62
2023/03/22 01:12:56;;;;;;;;;3.00;1.75;;;;;12.42;64.60;100540.69;4752127;29;45336;-61
2023/03/22 01:15:22;;;;;;;;;4.00;1.00;;;;;12.57;64.53;100560.44;4735241;29;45480;-61
2023/03/22 01:17:48;;;;;;;;;3.75;2.75;;;;;12.56;64.56;100555.16;4750871;29;45244;-63
2023/03/22 01:20:13;;;;;;;;;2.00;1.50;;;;;12.56;64.88;100552.38;4750431;29;45455;-62
2023/03/22 01:22:39;;;;;;;;;3.25;2.50;;;;;12.49;64.71;100541.44;4751788;29;45273;-63
2023/03/22 01:25:05;;;;;;;;;5.25;3.00;;;;;12.29;64.62;100504.00;4751815;29;45321;-63
2023/03/22 01:27:31;;;;;;;;;1.25;1.00;;;;;12.42;64.56;100524.16;4752188;29;45214;-62
2023/03/22 01:29:56;;;;;;;;;5.20;3.00;;;;;12.46;64.35;100528.16;4751509;29;46777;-64
2023/03/22 01:32:22;;;;;;;;;2.00;2.00;;;;;12.43;64.42;100514.88;4750214;29;45233;-63
2023/03/22 01:34:47;;;;;;;;;0.75;0.75;;;;;12.47;64.52;100518.81;4751708;29;45341;-63
2023/03/22 01:37:13;;;;;;;;;1.00;1.00;;;;;12.47;64.69;100507.81;4750479;29;45567;-62
2023/03/22 01:39:38;;;;;;;;;1.50;1.50;;;;;12.40;64.52;100509.81;4751530;29;46051;-63
2023/03/22 01:42:04;;;;;;;;;1.25;0.00;;;;;12.24;64.39;100484.59;4750076;29;45421;-62
2023/03/22 01:44:30;;;;;;;;;2.50;0.75;;;;;12.30;64.90;100491.94;4751014;29;45502;-63
2023/03/22 01:46:55;;;;;;;;;3.50;2.00;;;;;12.42;64.44;100504.91;4735876;29;45495;-63
2023/03/22 01:49:30;;;;;;;;;5.00;2.00;;;;;12.42;64.64;100496.66;4751012;29;45581;-63
2023/03/22 01:52:00;;;;;;;;;2.00;2.00;;;;;12.40;64.25;100499.66;4750202;29;45467;-62
2023/03/22 01:54:47;;;;;;;;;2.60;2.60;;;;;12.32;64.81;100488.94;4750058;29;45262;-63
2023/03/22 01:57:12;;;;;;;;;3.60;2.00;;;;;12.37;65.06;100491.00;4751073;29;45750;-62
2023/03/22 01:59:39;;;;;;;;;1.25;1.00;;;;;12.15;64.97;100452.94;4750038;29;46842;-63
2023/03/22 02:02:04;;;;;;;;;3.80;2.60;;;;;12.27;64.92;100473.13;4735134;29;45505;-62
2023/03/22 02:04:33;;;;;;;;;3.00;3.00;;;;;12.29;65.01;100482.00;4751223;29;45383;-63
2023/03/22 02:07:00;;;;;;;;;4.00;2.00;;;;;12.23;65.17;100458.16;4735683;29;45368;-63
2023/03/22 02:09:25;;;;;;;;;3.40;2.20;;;;;12.27;65.47;100467.59;4735234;29;45412;-63
2023/03/22 02:11:59;;;;;;;;;4.25;2.00;;;;;12.28;65.24;100450.03;4749783;29;45441;-63
2023/03/22 02:14:47;;;;;;;;;2.00;1.60;;;;;12.27;65.39;100442.84;4751086;29;45491;-63
2023/03/22 02:17:33;;;;;;;;;4.80;1.80;;;;;12.23;65.23;100446.28;4722378;29;45928;-61
2023/03/22 02:20:23;;;;;;;;;2.20;2.00;;;;;12.06;65.02;100417.50;4735477;29;46290;-63
2023/03/22 02:23:04;;;;;;;;;2.00;1.00;;;;;11.99;64.98;100404.84;4751192;29;45241;-62
2023/03/22 02:25:36;;;;;;;;;2.80;2.00;;;;;12.19;65.27;100437.66;4712182;29;45815;-63
2023/03/22 02:28:20;;;;;;;;;2.20;1.00;;;;;12.15;65.50;100437.28;4732419;30;45543;-63
2023/03/22 02:31:04;;;;;;;;;4.40;2.40;;;;;12.17;65.51;100432.38;4733449;30;46614;-63
2023/03/22 02:33:56;;;;;;;;;3.60;1.80;;;;;12.20;65.40;100436.59;4733395;29;45329;-64
2023/03/22 02:36:58;;;;;;;;;1.00;1.00;;;;;12.15;65.18;100440.03;4737422;29;45500;-63
2023/03/22 02:39:39;;;;;;;;;3.80;1.00;;;;;12.11;65.18;100440.72;4751392;29;45372;-63
2023/03/22 02:42:40;;;;;;;;;1.60;1.40;;;;;12.10;65.35;100433.56;4749482;29;45722;-63
2023/03/22 02:45:19;;;;;;;;;2.60;1.60;;;;;12.08;65.61;100444.78;4730681;30;45353;-63
2023/03/22 02:47:53;;;;;;;;;0.80;0.80;;;;;12.05;65.37;100443.31;4745616;29;45392;-63
2023/03/22 02:50:27;;;;;;;;;1.80;1.80;;;;;12.03;65.48;100445.47;4751443;29;45356;-63
2023/03/22 02:52:57;;;;;;;;;3.20;2.60;;;;;12.05;65.58;100448.81;4735547;29;46630;-63
2023/03/22 02:55:42;;;;;;;;;3.60;2.40;;;;;12.02;65.46;100451.16;4749768;29;45741;-63
2023/03/22 02:58:15;;;;;;;;;3.00;1.40;;;;;12.03;65.36;100434.47;4738576;29;45358;-63
2023/03/22 03:00:40;;;;;;;;;2.20;2.00;;;;;11.99;65.84;100437.84;4753086;29;45401;-61
2023/03/22 03:03:11;;;;;;;;;2.50;1.75;;;;;11.97;65.67;100448.25;4737784;29;45463;-63
2023/03/22 03:05:41;;;;;;;;;4.40;2.00;;;;;11.83;65.95;100420.91;4738293;29;45551;-63
2023/03/22 03:08:07;;;;;;;;;2.20;2.00;;;;;12.01;65.87;100452.22;4738021;29;45457;-61
2023/03/22 03:10:32;;;;;;;;;2.00;2.00;;;;;12.00;65.90;100458.81;4752758;29;45630;-62
2023/03/22 03:12:58;;;;;;;;;3.00;2.50;;;;;12.02;65.80;100457.47;4752393;29;45988;-63
2023/03/22 03:15:24;;;;;;;;;3.00;2.25;;;;;12.00;65.62;100461.56;4752166;29;45462;-63
2023/03/22 03:17:56;;;;;;;;;1.40;1.00;;;;;11.95;65.97;100459.47;4752278;29;45396;-62
2023/03/22 03:20:23;;;;;;;;;3.00;2.00;;;;;12.01;65.88;100449.47;4752583;29;45412;-62
2023/03/22 03:23:03;;;;;;;;;6.00;2.00;;;;;12.02;65.71;100451.16;4753325;29;45847;-62
2023/03/22 03:26:01;;;;;;;;;2.00;2.00;;;;;12.00;65.80;100448.63;4753239;29;45311;-62
2023/03/22 03:28:45;;;;;;;;;1.80;1.80;;;;;12.01;66.02;100436.56;4751517;29;45879;-62
2023/03/22 03:31:19;;;;;;;;;3.60;2.40;;;;;12.00;65.78;100440.38;4753564;29;45169;-62
2023/03/22 03:33:52;;;;;;;;;2.60;2.60;;;;;12.04;66.24;100446.28;4751712;29;45916;-61
2023/03/22 03:36:17;;;;;;;;;1.40;1.00;;;;;12.05;65.97;100454.31;4752131;29;45507;-64
2023/03/22 03:38:46;;;;;;;;;3.00;1.25;;;;;12.09;65.69;100443.69;4753322;29;45316;-61
2023/03/22 03:41:13;;;;;;;;;2.60;2.20;;;;;12.13;65.61;100444.94;4722709;29;46090;-63
2023/03/22 03:43:39;;;;;;;;;2.00;2.00;;;;;11.93;65.53;100404.72;4737206;29;46189;-62
2023/03/22 03:46:05;;;;;;;;;2.50;1.25;;;;;12.10;65.34;100439.06;4733715;30;45421;-62
2023/03/22 03:48:31;;;;;;;;;1.00;1.00;;;;;12.16;65.20;100438.97;4719329;30;45427;-63
2023/03/22 03:50:57;;;;;;;;;4.00;2.00;;;;;12.18;64.99;100442.31;4734269;30;45896;-63
2023/03/22 03:53:23;;;;;;;;;2.00;2.00;;;;;12.17;65.40;100442.56;4748614;29;46497;-63
2023/03/22 03:55:48;;;;;;;;;2.00;2.00;;;;;12.10;65.19;100431.63;4751226;29;45198;-62
2023/03/22 03:58:15;;;;;;;;;2.25;2.00;;;;;12.05;65.48;100435.06;4751849;29;45240;-63
2023/03/22 04:00:41;;;;;;;;;2.00;1.40;;;;;12.11;65.48;100446.22;4753355;29;45261;-63
2023/03/22 04:03:06;;;;;;;;;1.50;1.00;;;;;12.06;65.24;100428.50;4744648;29;46069;-63
2023/03/22 04:05:32;;;;;;;;;1.00;0.00;;;;;12.09;65.25;100427.19;4718770;30;45369;-63
2023/03/22 04:07:57;;;;;;;;;1.75;1.50;;;;;12.15;65.30;100455.69;4733388;30;45453;-65
2023/03/22 04:10:23;;;;;;;;;3.00;2.00;;;;;12.13;65.31;100442.19;4735641;29;45384;-63
2023/03/22 04:12:48;;;;;;;;;4.25;3.00;;;;;12.13;65.23;100444.09;4734458;30;46436;-63
2023/03/22 04:15:14;;;;;;;;;4.00;2.75;;;;;12.10;65.22;100448.13;4734664;29;45505;-63
2023/03/22 04:17:40;;;;;;;;;1.00;1.00;;;;;12.17;65.72;100445.31;4734944;30;45543;-62
2023/03/22 04:20:08;;;;;;;;;4.00;2.75;;;;;12.17;65.43;100443.38;4734499;29;45454;-62
2023/03/22 04:22:33;;;;;;;;;2.20;2.00;;;;;12.18;65.42;100431.31;4720726;29;46412;-62
2023/03/22 04:25:02;;;;;;;;;2.75;1.75;;;;;12.22;64.92;100439.13;4751448;29;45392;-62
2023/03/22 04:27:28;;;;;;;;;1.60;1.60;;;;;12.11;64.79;100435.22;4752716;29;45452;-63
2023/03/22 04:29:54;;;;;;;;;4.50;3.25;;;;;12.17;65.54;100434.31;4752582;29;45420;-62
2023/03/22 04:32:23;;;;;;;;;3.60;2.00;;;;;12.19;64.94;100432.16;4752446;29;45681;-63
2023/03/22 04:34:49;;;;;;;;;1.00;0.40;;;;;12.09;64.90;100407.94;4736486;29;45404;-63
2023/03/22 04:37:15;;;;;;;;;3.00;2.00;;;;;12.16;64.96;100416.09;4752288;29;45392;-63
2023/03/22 04:39:41;;;;;;;;;4.00;1.00;;;;;12.12;64.96;100414.91;4736377;29;45445;-63
2023/03/22 04:42:07;;;;;;;;;2.25;0.50;;;;;11.96;64.95;100397.06;4750794;29;46492;-63
2023/03/22 04:44:32;;;;;;;;;0.50;0.50;;;;;12.18;64.74;100424.97;4736336;29;45387;-62
2023/03/22 04:46:58;;;;;;;;;2.25;1.00;;;;;12.14;64.80;100419.09;4751105;29;45495;-63
2023/03/22 04:49:25;;;;;;;;;1.00;1.00;;;;;11.96;65.00;100389.66;4752676;29;45438;-62
2023/03/22 04:51:51;;;;;;;;;1.00;1.00;;;;;12.06;65.04;100400.97;4750610;29;45992;-63
2023/03/22 04:54:16;;;;;;;;;2.50;1.00;;;;;12.19;64.94;100421.16;4750443;29;45469;-62
2023/03/22 04:56:42;;;;;;;;;2.25;1.25;;;;;12.21;64.75;100416.25;4752426;29;45365;-63
2023/03/22 04:59:09;;;;;;;;;1.75;1.25;;;;;12.17;64.88;100415.88;4751886;29;45422;-62
2023/03/22 05:01:36;;;;;;;;;0.20;0.20;;;;;12.11;65.27;100415.97;4751928;29;46919;-63
2023/03/22 05:04:02;;;;;;;;;3.20;1.60;;;;;12.13;64.97;100422.94;4751591;29;45375;-63
2023/03/22 05:06:27;;;;;;;;;2.75;1.00;;;;;12.12;65.04;100412.16;4751811;29;45437;-62
2023/03/22 05:08:53;;;;;;;;;3.00;3.00;;;;;12.08;65.42;100409.00;4752031;29;45592;-62
2023/03/22 05:11:19;;;;;;;;;3.25;1.00;;;;;12.09;65.05;100404.34;4736000;29;47075;-63
2023/03/22 05:13:44;;;;;;;;;1.75;1.00;;;;;11.96;64.97;100389.66;4751802;29;45416;-63
2023/03/22 05:16:10;;;;;;;;;1.00;1.00;;;;;11.80;65.33;100367.19;4736110;29;45426;-63
2023/03/22 05:18:41;;;;;;;;;1.75;1.75;;;;;12.01;65.29;100421.97;4750777;29;45460;-63
2023/03/22 05:21:14;;;;;;;;;1.60;1.60;;;;;11.96;65.40;100408.06;4750221;29;46268;-63
2023/03/22 05:23:40;;;;;;;;;1.60;1.60;;;;;11.95;65.63;100404.47;4736566;29;45702;-63
2023/03/22 05:26:07;;;;;;;;;5.00;2.20;;;;;11.92;65.64;100413.19;4751989;29;45331;-64
2023/03/22 05:28:33;;;;;;;;;0.60;0.00;;;;;11.72;65.64;100370.25;4743897;29;45504;-63
2023/03/22 05:30:58;;;;;;;;;1.75;0.75;;;;;11.78;65.65;100376.75;4730201;29;45338;-61
2023/03/22 05:33:24;;;;;;;;;2.25;2.25;;;;;11.92;65.96;100397.50;4744935;29;45543;-62
2023/03/22 05:35:49;;;;;;;;;1.00;1.00;;;;;11.96;65.80;100397.91;4744620;29;45400;-61
2023/03/22 05:38:15;;;;;;;;;2.00;1.00;;;;;11.92;66.04;100405.75;4742817;29;45565;-63
2023/03/22 05:40:42;;;;;;;;;2.50;1.50;;;;;11.68;65.75;100365.44;4747453;29;45419;-63
2023/03/22 05:43:07;;;;;;;;;1.00;1.00;;;;;11.83;66.13;100387.91;4732301;30;45475;-62
2023/03/22 05:45:35;;;;;;;;;3.00;3.00;;;;;11.94;66.46;100400.03;4734208;29;45461;-61
2023/03/22 05:48:01;;;;;;;;;2.20;1.20;;;;;11.73;66.39;100373.81;4741478;29;45482;-63
2023/03/22 05:50:26;;;;;;;;;4.00;3.00;;;;;11.92;66.58;100410.44;4735389;29;45338;-62
2023/03/22 05:52:52;;;;;;;;;1.50;1.50;;;;;11.92;66.47;100407.69;4751408;29;45312;-62
2023/03/22 05:55:18;;;;;;;;;3.00;1.50;;;;;11.93;66.79;100415.72;4751683;29;45292;-62
2023/03/22 05:57:43;;;;;;;;;2.00;2.00;;;;;11.95;66.64;100406.38;4752084;29;45479;-62
2023/03/22 06:00:12;;;;;;;;;8.50;3.00;;;;;11.92;66.65;100402.19;4746900;29;45889;-62
2023/03/22 06:02:38;;;;;;;;;2.80;2.80;;;;;11.71;67.28;100354.84;4732321;30;45383;-62
2023/03/22 06:05:04;;;;;;;;;2.00;2.00;;;;;12.01;66.13;100409.03;4747510;29;45679;-62
2023/03/22 06:07:30;;;;;;;;;3.00;3.00;;;;;12.05;66.77;100395.69;4733716;29;45322;-63
2023/03/22 06:09:55;;;;;;;;;2.80;2.80;;;;;12.06;66.48;100394.63;4734103;29;46536;-64
2023/03/22 06:12:23;;;;;;;;;4.25;3.25;;;;;11.97;66.58;100374.00;4747124;29;45383;-62
2023/03/22 06:14:49;;;;;;;;;2.00;2.00;;;;;12.08;66.79;100384.25;4733021;29;45373;-62
2023/03/22 06:17:15;;;;;;;;;2.25;2.25;;;;;12.09;67.16;100393.34;4733739;29;45599;-62
2023/03/22 06:19:41;;;;;;;;;5.40;3.60;;;;;12.09;66.68;100383.19;4717305;30;48195;-62
2023/03/22 06:22:06;;;;;;;;;3.50;3.50;;;;;12.06;66.87;100387.22;4733404;29;45408;-62
2023/03/22 06:24:32;;;;;;;;;8.00;5.00;;;;;12.01;67.11;100376.03;4748826;29;45564;-61
2023/03/22 06:26:57;;;;;;;;;8.50;3.00;;;;;12.06;66.83;100389.97;4740568;29;45611;-61
2023/03/22 06:29:22;;;;;;;;;7.00;4.25;;;;;12.05;66.61;100387.44;4746369;29;46669;-61
2023/03/22 06:31:48;;;;;;;;;4.50;4.50;;;;;11.84;67.07;100370.31;4731729;30;45499;-62
2023/03/22 06:34:13;;;;;;;;;8.75;8.00;;;;;12.10;66.93;100408.78;4755406;29;45562;-63
2023/03/22 06:36:39;;;;;;;;;14.00;9.75;;;;;12.08;66.94;100411.75;4758786;29;45271;-61
2023/03/22 06:39:05;;;;;;;;;8.40;4.00;;;;;12.14;66.96;100419.09;4749382;29;48678;-62
2023/03/22 06:41:30;;;;;;;;;3.25;3.25;;;;;12.11;66.71;100413.22;4750841;29;45370;-62
2023/03/22 06:43:56;;;;;;;;;7.25;4.25;;;;;12.09;66.68;100404.34;4749595;29;45278;-60
2023/03/22 06:46:22;;;;;;;;;8.50;6.50;;;;;12.17;66.53;100428.81;4750182;29;45484;-62
2023/03/22 06:48:47;;;;;;;;;4.00;4.00;;;;;12.16;66.89;100433.47;4748994;29;46572;-63
2023/03/22 06:51:13;;;;;;;;;5.00;3.75;;;;;11.96;66.74;100397.91;4750965;29;45380;-63
2023/03/22 06:53:39;;;;;;;;;5.00;3.00;;;;;12.19;66.84;100435.75;4749380;29;45471;-61
2023/03/22 06:56:05;;;;;;;;;6.00;4.25;;;;;12.02;66.32;100409.91;4750726;29;45686;-61
2023/03/22 06:58:31;;;;;;;;;2.60;2.60;;;;;12.25;66.33;100441.38;4749083;29;45676;-63
2023/03/22 07:00:56;;;;;;;;;4.50;4.50;;;;;12.29;66.20;100448.97;4750838;29;45482;-62
2023/03/22 07:03:22;;;;;;;;;6.00;3.00;;;;;12.26;66.17;100448.56;4750761;29;45423;-63
2023/03/22 07:05:48;;;;;;;;;4.40;3.20;;;;;12.24;66.73;100454.31;4749438;29;45660;-63
2023/03/22 07:08:13;;;;;;;;;3.50;3.50;;;;;12.25;66.31;100445.00;4748985;29;45368;-63
2023/03/22 07:10:39;;;;;;;;;3.00;3.00;;;;;12.26;66.53;100456.81;4750708;29;45308;-62
2023/03/22 07:13:05;;;;;;;;;8.50;5.00;;;;;12.27;66.24;100453.84;4750832;29;45802;-62
2023/03/22 07:15:31;;;;;;;;;7.40;5.00;;;;;12.27;66.64;100455.78;4750645;29;45680;-62
2023/03/22 07:17:59;;;;;;;;;4.60;4.60;;;;;12.30;66.29;100455.31;4750443;29;47528;-63
2023/03/22 07:20:25;;;;;;;;;4.00;4.00;;;;;12.29;66.48;100457.22;4750468;29;45465;-62
2023/03/22 07:22:50;;;;;;;;;5.00;3.25;;;;;12.37;66.15;100458.00;4750609;29;45378;-63
2023/03/22 07:25:15;;;;;;;;;6.00;3.00;;;;;12.38;66.27;100451.41;4750871;29;45461;-61
2023/03/22 07:27:41;;;;;;;;;4.50;4.25;;;;;12.33;66.07;100452.94;4750478;29;46596;-61
2023/03/22 07:30:07;;;;;;;;;4.50;4.00;;;;;12.40;66.30;100461.13;4748951;29;45501;-61
2023/03/22 07:32:32;;;;;;;;;6.75;4.00;;;;;12.39;66.13;100442.06;4749293;29;45418;-62
2023/03/22 07:34:58;;;;;;;;;5.75;4.75;;;;;12.37;66.27;100460.75;4719276;29;45877;-62
2023/03/22 07:37:23;;;;;;;;;6.00;6.00;;;;;12.42;66.41;100447.97;4748875;29;46398;-63
2023/03/22 07:39:49;;;;;;;;;7.00;5.75;;;;;12.44;66.18;100456.81;4749066;29;45183;-63
2023/03/22 07:42:14;;;;;;;;;5.00;5.00;;;;;12.42;66.13;100447.97;4749620;29;45840;-63
2023/03/22 07:44:40;;;;;;;;;6.50;6.25;;;;;12.47;66.18;100455.50;4753969;29;45633;-63
2023/03/22 07:47:06;;;;;;;;;6.60;5.00;;;;;12.49;66.05;100460.78;4751737;29;47995;-62
2023/03/22 07:49:32;;;;;;;;;4.75;4.75;;;;;12.53;65.90;100471.09;4737257;29;45359;-63
2023/03/22 07:51:57;;;;;;;;;4.25;3.50;;;;;12.53;66.07;100470.28;4753721;29;45316;-62
2023/03/22 07:54:23;;;;;;;;;3.00;3.00;;;;;12.49;65.86;100475.38;4753817;29;46304;-63
2023/03/22 07:56:48;;;;;;;;;5.50;4.25;;;;;12.51;66.63;100478.75;4753000;29;45957;-63
2023/03/22 07:59:15;;;;;;;;;5.50;3.50;;;;;12.56;66.65;100475.31;4751464;29;45982;-63
2023/03/22 08:01:42;;;;;;;;;9.00;7.80;;;;;12.33;66.49;100438.34;4753138;29;45481;-61
2023/03/22 08:04:07;;;;;;;;;7.20;5.00;;;;;12.56;66.80;100476.16;4753042;29;45466;-63
2023/03/22 08:06:35;;;;;;;;;6.25;5.50;;;;;12.60;66.92;100482.03;4751453;29;47470;-63
2023/03/22 08:09:04;;;;;;;;;6.20;6.00;;;;;12.63;66.79;100469.72;4737241;29;45447;-63
2023/03/22 08:11:30;;;;;;;;;3.40;3.40;;;;;12.57;67.29;100466.81;4737685;29;45486;-63
2023/03/22 08:13:56;;;;;;;;;9.25;5.50;;;;;12.61;66.94;100479.03;4753066;29;45673;-63
2023/03/22 08:16:21;;;;;;;;;3.75;3.25;;;;;12.55;66.73;100468.94;4736579;29;48076;-63
2023/03/22 08:18:47;;;;;;;;;4.00;4.00;;;;;12.42;66.96;100455.34;4752863;29;45370;-61
2023/03/22 08:21:13;;;;;;;;;5.40;3.80;;;;;12.66;66.79;100491.28;4751851;29;45329;-62
2023/03/22 08:23:38;;;;;;;;;4.00;4.00;;;;;12.69;66.73;100475.13;4753092;29;45503;-61
2023/03/22 08:26:04;;;;;;;;;4.00;3.00;;;;;12.66;66.49;100475.59;4753010;29;46537;-62
2023/03/22 08:28:30;;;;;;;;;8.40;4.20;;;;;12.61;66.63;100456.19;4750961;29;45405;-62
2023/03/22 08:30:55;;;;;;;;;7.75;4.00;;;;;12.61;66.80;100480.97;4744641;29;45382;-63
2023/03/22 08:33:22;;;;;;;;;7.00;3.25;;;;;12.66;67.10;100483.00;4744211;29;45563;-61
2023/03/22 08:35:48;;;;;;;;;3.00;3.00;;;;;12.65;67.46;100475.84;4744914;29;46981;-58
2023/03/22 08:38:14;;;;;;;;;5.75;4.75;;;;;12.51;67.57;100442.13;4728198;29;45816;-61
2023/03/22 08:40:39;;;;;;;;;5.50;4.00;;;;;12.76;67.27;100485.22;4751109;29;45412;-62
2023/03/22 08:43:05;;;;;;;;;6.25;5.00;;;;;12.76;67.70;100458.53;4752371;29;45388;-62
2023/03/22 08:45:30;;;;;;;;;8.50;5.00;;;;;12.77;68.12;100468.47;4751873;29;45748;-62
2023/03/22 08:47:56;;;;;;;;;6.75;5.25;;;;;12.73;67.59;100453.47;4746637;29;45428;-63
2023/03/22 08:50:22;;;;;;;;;7.40;5.00;;;;;12.68;67.45;100445.91;4744751;29;45520;-60
2023/03/22 08:52:47;;;;;;;;;4.25;4.00;;;;;12.88;67.55;100473.16;4749647;29;45399;-60
2023/03/22 08:55:16;;;;;;;;;5.50;5.00;;;;;12.88;67.61;100464.06;4746895;29;46996;-61
2023/03/22 08:57:43;;;;;;;;;4.80;3.60;;;;;12.73;67.32;100414.91;4743701;29;45393;-61
2023/03/22 09:00:10;;;;;;;;;3.00;3.00;;;;;12.84;68.23;100447.19;4752296;29;45418;-62
2023/03/22 09:02:36;;;;;;;;;5.20;4.60;;;;;12.86;68.12;100458.78;4750964;29;45588;-61
2023/03/22 09:05:01;;;;;;;;;4.50;4.25;;;;;12.81;68.54;100455.88;4751310;29;48209;-62
2023/03/22 09:07:27;;;;;;;;;2.75;2.75;;;;;12.74;68.76;100431.22;4732300;29;45405;-61
2023/03/22 09:09:52;;;;;;;;;6.50;4.25;;;;;12.56;69.17;100414.75;4732626;29;45530;-61
2023/03/22 09:12:18;;;;;;;;;3.25;3.25;;;;;12.64;69.71;100441.13;4730822;29;45491;-61
2023/03/22 09:14:45;;;;;;;;;6.50;5.75;;;;;12.67;69.73;100451.66;4748024;29;46451;-62
2023/03/22 09:17:11;;;;;;;;;8.20;6.80;;;;;12.67;70.07;100438.75;4744091;29;45680;-62
2023/03/22 09:19:37;;;;;;;;;7.25;6.00;;;;;12.63;69.87;100422.94;4751552;29;45399;-63
2023/03/22 09:22:03;;;;;;;;;6.00;4.00;;;;;12.67;69.96;100462.66;4749853;29;45376;-63
2023/03/22 09:24:29;;;;;;;;;8.75;6.00;;;;;12.67;70.61;100437.88;4751694;29;47190;-62
2023/03/22 09:26:57;;;;;;;;;5.25;5.00;;;;;12.71;70.67;100447.38;4749901;29;45668;-62
2023/03/22 09:29:22;;;;;;;;;7.80;6.40;;;;;12.70;70.65;100438.25;4748169;29;45470;-62
2023/03/22 09:31:48;;;;;;;;;5.00;4.75;;;;;12.70;70.79;100445.69;4754284;29;45727;-62
2023/03/22 09:34:14;;;;;;;;;5.00;5.00;;;;;12.72;70.83;100446.28;4748903;29;46589;-62
2023/03/22 09:36:39;;;;;;;;;6.00;5.00;;;;;12.76;71.09;100449.41;4746971;29;45397;-60
2023/03/22 09:39:06;;;;;;;;;7.25;5.50;;;;;12.73;71.28;100437.81;4747488;29;45444;-62
2023/03/22 09:41:40;;;;;;;;;7.80;7.60;;;;;12.73;71.32;100432.28;4717978;29;45395;-62
2023/03/22 09:44:10;;;;;;;;;8.60;6.00;;;;;12.51;71.18;100396.19;4747307;29;45698;-62
2023/03/22 09:46:38;;;;;;;;;6.60;6.60;;;;;12.51;71.28;100385.16;4733209;29;45427;-64
2023/03/22 09:49:06;;;;;;;;;5.80;5.20;;;;;12.76;71.13;100419.13;4735462;29;45888;-63
2023/03/22 09:51:48;;;;;;;;;5.00;5.00;;;;;12.73;71.00;100432.28;4748301;29;45594;-63
2023/03/22 09:54:23;;;;;;;;;9.60;6.00;;;;;12.81;71.11;100433.03;4749228;29;46901;-64
2023/03/22 09:56:55;;;;;;;;;5.60;4.20;;;;;12.83;71.17;100425.38;4749065;29;45780;-63
2023/03/22 09:59:48;;;;;;;;;5.40;3.80;;;;;12.81;71.38;100416.50;4734103;29;45536;-63
2023/03/22 10:02:22;;;;;;;;;6.40;4.60;;;;;12.77;71.09;100418.91;4733231;29;45627;-63
2023/03/22 10:05:07;;;;;;;;;5.20;4.40;;;;;12.70;71.55;100398.88;4733875;29;45995;-63
2023/03/22 10:08:03;;;;;;;;;5.40;4.00;;;;;12.57;71.72;100378.72;4740404;29;45459;-60
2023/03/22 10:10:29;;;;;;;;;8.20;6.00;;;;;12.77;71.29;100391.38;4731071;30;45306;-63
2023/03/22 10:13:20;;;;;;;;;4.75;4.75;;;;;12.78;71.57;100378.41;4745834;29;45394;-62
2023/03/22 10:15:52;;;;;;;;;7.60;5.00;;;;;12.80;71.78;100396.38;4749954;29;45875;-61
2023/03/22 10:18:26;;;;;;;;;6.80;5.40;;;;;12.64;72.02;100364.84;4730341;29;45839;-60
2023/03/22 10:21:08;;;;;;;;;9.00;5.60;;;;;12.90;71.35;100394.97;4741487;29;45507;-61
2023/03/22 10:23:35;;;;;;;;;5.20;5.00;;;;;12.92;71.24;100401.09;4737455;29;45314;-63
2023/03/22 10:26:01;;;;;;;;;6.00;5.00;;;;;12.95;71.37;100411.63;4763496;29;46513;-63
2023/03/22 10:28:36;;;;;;;;;6.00;6.00;;;;;12.91;71.22;100397.47;4766668;29;45472;-64
2023/03/22 10:31:02;;;;;;;;;6.80;6.80;;;;;12.77;71.19;100382.25;4766572;29;45443;-61
2023/03/22 10:33:37;;;;;;;;;8.00;5.25;;;;;12.65;71.04;100349.19;4766826;29;45522;-62
2023/03/22 10:36:03;;;;;;;;;7.20;6.00;;;;;12.98;71.04;100378.09;4738542;29;45666;-61
2023/03/22 10:38:29;;;;;;;;;3.80;2.80;;;;;13.02;71.08;100363.63;4739807;29;45517;-61
2023/03/22 10:40:56;;;;;;;;;9.25;6.00;;;;;13.09;71.19;100363.53;4747770;29;45434;-62
2023/03/22 10:43:24;;;;;;;;;6.60;5.60;;;;;13.01;71.25;100370.22;4721128;29;45659;-62
2023/03/22 10:45:51;;;;;;;;;8.80;8.80;;;;;12.96;71.21;100381.09;4749878;29;47356;-61
2023/03/22 10:48:31;;;;;;;;;4.80;4.80;;;;;12.96;71.25;100391.28;4751280;29;45488;-61
2023/03/22 10:50:57;;;;;;;;;8.20;8.00;;;;;12.99;70.98;100379.78;4717706;30;45506;-63
2023/03/22 10:53:47;;;;;;;;;5.00;4.00;;;;;13.03;70.92;100367.22;4716562;30;45480;-62
2023/03/22 10:56:18;;;;;;;;;6.00;5.00;;;;;13.02;71.10;100362.75;4716927;30;46514;-62
2023/03/22 10:58:44;;;;;;;;;4.40;4.20;;;;;13.23;71.02;100366.03;4734948;29;45353;-62
2023/03/22 11:01:11;;;;;;;;;7.00;5.00;;;;;13.12;70.03;100334.63;4745573;29;45824;-63
2023/03/22 11:03:39;;;;;;;;;3.20;3.20;;;;;13.34;70.01;100353.34;4748306;29;45539;-62
2023/03/22 11:06:16;;;;;;;;;6.80;6.80;;;;;13.15;69.72;100312.94;4745708;29;46588;-61
2023/03/22 11:08:46;;;;;;;;;5.20;4.00;;;;;13.48;69.96;100360.31;4751177;29;45541;-61
2023/03/22 11:11:28;;;;;;;;;6.20;6.00;;;;;13.55;69.30;100360.16;4747770;29;45522;-63
2023/03/22 11:14:09;;;;;;;;;8.80;6.40;;;;;13.68;68.87;100368.19;4756675;29;45372;-62
2023/03/22 11:17:04;;;;;;;;;10.60;6.00;;;;;13.50;68.90;100316.78;4764589;29;45623;-62
2023/03/22 11:19:34;;;;;;;;;9.20;8.00;;;;;13.81;68.90;100357.97;4756449;29;48671;-60
2023/03/22 11:21:59;;;;;;;;;17.40;14.00;;;;;13.69;69.01;100319.41;4750088;29;45503;-62
2023/03/22 11:24:30;;;;;;;;;4.00;4.00;;;;;13.93;68.47;100366.25;4751066;29;45533;-62
2023/03/22 11:27:07;;;;;;;;;12.00;7.00;;;;;14.02;67.96;100373.03;4737359;29;46230;-63
2023/03/22 11:29:43;;;;;;;;;6.20;6.00;;;;;14.09;67.93;100350.84;4752724;29;45529;-63
2023/03/22 11:32:31;;;;;;;;;8.80;6.00;;;;;14.06;67.97;100365.13;4750391;29;45698;-61